Time,TemperatureF,DewpointF,PressureIn,WindDirection,WindDirectionDegrees,WindSpeedMPH,WindSpeedGustMPH,Humidity,HourlyPrecipIn,Conditions,Clouds,dailyrainin,SoftwareType,DateUTC
2013-11-08 00:04:00,75.4,68.1,18.01,North,0,0.0,0.0,78,0.00,,SHRA,0.00,VWS V14.01,2013-11-08 04:04:00,
2013-11-08 00:09:00,75.2,67.9,18.01,North,0,0.0,0.0,78,0.00,,SHRA,0.00,VWS V14.01,2013-11-08 04:09:00,
2013-11-08 00:14:00,75.2,67.9,18.01,North,0,0.0,0.0,78,0.00,,SHRA,0.00,VWS V14.01,2013-11-08 04:14:00,
2013-11-08 00:19:00,75.0,68.1,18.01,North,0,0.0,0.0,79,0.00,,SHRA,0.00,VWS V14.01,2013-11-08 04:19:00,
2013-11-08 00:24:00,75.0,68.1,18.01,North,0,0.0,0.0,79,0.00,,SHRA,0.00,VWS V14.01,2013-11-08 04:24:00,
2013-11-08 00:29:00,75.0,68.1,18.01,North,0,0.0,0.0,79,0.00,,SHRA,0.00,VWS V14.01,2013-11-08 04:29:00,
2013-11-08 00:34:00,75.0,68.1,18.01,North,0,0.0,0.0,79,0.00,,SHRA,0.00,VWS V14.01,2013-11-08 04:34:00,
2013-11-08 00:39:00,75.0,68.4,18.01,North,0,0.0,0.0,80,0.00,,SHRA,0.00,VWS V14.01,2013-11-08 04:39:00,
2013-11-08 00:44:00,74.8,68.3,18.01,North,0,0.0,0.0,80,0.00,,SHRA,0.00,VWS V14.01,2013-11-08 04:44:00,
2013-11-08 00:49:00,74.8,68.3,18.01,North,0,0.0,0.0,80,0.00,,SHRA,0.00,VWS V14.01,2013-11-08 04:49:00,
2013-11-08 00:54:00,74.8,68.3,18.01,North,0,0.0,0.0,80,0.00,,SHRA,0.00,VWS V14.01,2013-11-08 04:54:00,
2013-11-08 00:59:00,74.8,68.3,18.01,North,0,0.0,0.0,80,0.00,,SHRA,0.00,VWS V14.01,2013-11-08 04:59:00,
2013-11-08 01:01:00,75.0,68.4,18.01,North,0,0.0,0.0,80,0.00,,SHRA,0.00,VWS V14.01,2013-11-08 05:01:00,
2013-11-08 01:06:00,75.0,68.8,18.01,North,0,0.0,0.0,81,0.00,,SHRA,0.00,VWS V14.01,2013-11-08 05:06:00,
2013-11-08 01:11:00,74.8,68.6,18.01,North,0,0.0,0.0,81,0.00,,SHRA,0.00,VWS V14.01,2013-11-08 05:11:00,
2013-11-08 01:16:00,74.7,68.4,18.01,North,0,0.0,0.0,81,0.00,,SHRA,0.00,VWS V14.01,2013-11-08 05:16:00,
2013-11-08 01:21:00,74.7,68.4,18.01,North,0,0.0,0.0,81,0.00,,SHRA,0.00,VWS V14.01,2013-11-08 05:21:00,
2013-11-08 01:26:00,74.8,68.6,18.01,North,0,0.0,0.0,81,0.00,,SHRA,0.00,VWS V14.01,2013-11-08 05:26:00,
2013-11-08 01:31:00,74.8,68.6,18.01,North,0,0.0,0.0,81,0.00,,SHRA,0.00,VWS V14.01,2013-11-08 05:31:00,
2013-11-08 01:36:00,74.8,68.6,18.01,North,0,0.0,0.0,81,0.00,,SHRA,0.00,VWS V14.01,2013-11-08 05:36:00,
2013-11-08 01:41:00,74.8,68.6,18.01,North,0,0.0,0.0,81,0.00,,SHRA,0.00,VWS V14.01,2013-11-08 05:41:00,
2013-11-08 01:46:00,74.7,68.8,18.01,North,0,0.0,0.0,82,0.00,,SHRA,0.00,VWS V14.01,2013-11-08 05:46:00,
2013-11-08 01:51:00,74.5,68.6,18.01,North,0,0.0,0.0,82,0.00,,SHRA,0.00,VWS V14.01,2013-11-08 05:51:00,
2013-11-08 01:56:00,74.5,69.0,18.01,North,0,0.0,0.0,83,0.00,,SHRA,0.00,VWS V14.01,2013-11-08 05:56:00,
2013-11-08 02:01:00,74.5,69.3,18.01,North,0,0.0,0.0,84,0.00,,SHRA,0.00,VWS V14.01,2013-11-08 06:01:00,
2013-11-08 02:06:00,74.7,69.9,18.01,North,0,0.0,0.0,85,0.00,,SHRA,0.00,VWS V14.01,2013-11-08 06:06:00,
2013-11-08 02:11:00,74.7,69.9,18.01,North,0,0.0,0.0,85,0.00,,SHRA,0.00,VWS V14.01,2013-11-08 06:11:00,
2013-11-08 02:16:00,74.5,69.7,18.01,North,0,0.0,0.0,85,0.00,,SHRA,0.00,VWS V14.01,2013-11-08 06:16:00,
2013-11-08 02:21:00,74.5,69.7,18.01,North,0,0.0,0.0,85,0.00,,SHRA,0.00,VWS V14.01,2013-11-08 06:21:00,
2013-11-08 02:26:00,74.5,69.7,18.01,North,0,0.0,0.0,85,0.00,,SHRA,0.00,VWS V14.01,2013-11-08 06:26:00,
2013-11-08 02:31:00,74.7,69.9,18.01,North,0,0.0,0.0,85,0.00,,SHRA,0.00,VWS V14.01,2013-11-08 06:31:00,
2013-11-08 02:36:00,74.7,69.9,18.01,North,0,0.0,0.0,85,0.00,,SHRA,0.00,VWS V14.01,2013-11-08 06:36:00,
2013-11-08 02:41:00,74.5,69.7,18.01,North,0,0.0,0.0,85,0.00,,SHRA,0.00,VWS V14.01,2013-11-08 06:41:00,
2013-11-08 02:46:00,74.3,69.5,18.01,North,0,0.0,0.0,85,0.00,,SHRA,0.00,VWS V14.01,2013-11-08 06:46:00,
2013-11-08 02:51:00,74.3,69.5,18.01,North,0,0.0,0.0,85,0.00,,SHRA,0.00,VWS V14.01,2013-11-08 06:51:00,
2013-11-08 02:56:00,74.3,69.5,18.01,North,0,0.0,0.0,85,0.00,,SHRA,0.00,VWS V14.01,2013-11-08 06:56:00,
2013-11-08 03:01:00,74.3,69.5,18.01,North,0,0.0,0.0,85,0.00,,SHRA,0.00,VWS V14.01,2013-11-08 07:01:00,
2013-11-08 03:06:00,74.3,69.5,18.01,North,0,0.0,0.0,85,0.00,,SHRA,0.00,VWS V14.01,2013-11-08 07:06:00,
2013-11-08 03:11:00,74.3,69.5,18.01,North,0,0.0,0.0,85,0.00,,SHRA,0.00,VWS V14.01,2013-11-08 07:11:00,
2013-11-08 03:17:00,74.1,69.3,18.01,North,0,0.0,0.0,85,0.00,,SHRA,0.00,VWS V14.01,2013-11-08 07:17:00,
2013-11-08 03:22:00,74.1,69.3,18.01,North,0,0.0,0.0,85,0.00,,SHRA,0.00,VWS V14.01,2013-11-08 07:22:00,
2013-11-08 03:27:00,74.1,69.3,18.01,North,0,0.0,0.0,85,0.00,,SHRA,0.00,VWS V14.01,2013-11-08 07:27:00,
2013-11-08 03:32:00,73.9,69.2,18.01,North,0,0.0,0.0,85,0.00,,SHRA,0.00,VWS V14.01,2013-11-08 07:32:00,
2013-11-08 03:37:00,73.9,69.2,18.01,North,0,0.0,0.0,85,0.00,,SHRA,0.00,VWS V14.01,2013-11-08 07:37:00,
2013-11-08 03:42:00,73.8,69.0,18.01,North,0,0.0,0.0,85,0.00,,SHRA,0.00,VWS V14.01,2013-11-08 07:42:00,
2013-11-08 03:47:00,73.9,69.2,18.01,North,0,0.0,0.0,85,0.00,,SHRA,0.00,VWS V14.01,2013-11-08 07:47:00,
2013-11-08 03:52:00,73.8,69.0,18.01,North,0,0.0,0.0,85,0.00,,SHRA,0.00,VWS V14.01,2013-11-08 07:52:00,
2013-11-08 03:57:00,73.8,69.0,18.01,North,0,0.0,0.0,85,0.00,,SHRA,0.00,VWS V14.01,2013-11-08 07:57:00,
2013-11-08 04:07:00,73.6,68.8,18.01,North,0,0.0,0.0,85,0.00,,SHRA,0.00,VWS V14.01,2013-11-08 08:07:00,
2013-11-08 04:12:00,73.6,68.8,18.01,North,0,0.0,0.0,85,0.00,,SHRA,0.00,VWS V14.01,2013-11-08 08:12:00,
2013-11-08 04:17:00,73.6,68.8,18.01,North,0,0.0,0.0,85,0.00,,SHRA,0.00,VWS V14.01,2013-11-08 08:17:00,
2013-11-08 04:22:00,73.6,68.8,18.01,North,0,0.0,0.0,85,0.00,,SHRA,0.00,VWS V14.01,2013-11-08 08:22:00,
2013-11-08 04:27:00,73.6,68.8,18.01,North,0,0.0,0.0,85,0.00,,SHRA,0.00,VWS V14.01,2013-11-08 08:27:00,
2013-11-08 04:32:00,73.6,69.1,18.01,North,0,0.0,0.0,86,0.00,,SHRA,0.00,VWS V14.01,2013-11-08 08:32:00,
2013-11-08 04:37:00,73.4,69.0,18.01,North,0,0.0,0.0,86,0.00,,SHRA,0.00,VWS V14.01,2013-11-08 08:37:00,
2013-11-08 04:42:00,73.6,69.1,18.01,North,0,0.0,0.0,86,0.00,,SHRA,0.00,VWS V14.01,2013-11-08 08:42:00,
2013-11-08 04:47:00,73.4,69.0,18.01,North,0,0.0,0.0,86,0.00,,SHRA,0.00,VWS V14.01,2013-11-08 08:47:00,
2013-11-08 04:52:00,73.4,69.0,18.01,North,0,0.0,0.0,86,0.00,,SHRA,0.00,VWS V14.01,2013-11-08 08:52:00,
2013-11-08 04:57:00,73.6,69.1,18.01,North,0,0.0,0.0,86,0.00,,SHRA,0.00,VWS V14.01,2013-11-08 08:57:00,
2013-11-08 05:02:00,73.6,69.1,18.01,North,0,0.0,0.0,86,0.00,,SHRA,0.00,VWS V14.01,2013-11-08 09:02:00,
2013-11-08 05:07:00,73.6,69.1,18.01,North,0,0.0,0.0,86,0.00,,SHRA,0.00,VWS V14.01,2013-11-08 09:07:00,
2013-11-08 05:12:00,73.4,69.0,18.01,North,0,0.0,0.0,86,0.00,,SHRA,0.00,VWS V14.01,2013-11-08 09:12:00,
2013-11-08 05:17:00,73.2,68.8,18.01,North,0,0.0,0.0,86,0.00,,SHRA,0.00,VWS V14.01,2013-11-08 09:17:00,
2013-11-08 05:22:00,73.2,68.8,18.01,North,0,0.0,0.0,86,0.00,,SHRA,0.00,VWS V14.01,2013-11-08 09:22:00,
2013-11-08 05:27:00,73.2,69.1,18.01,North,0,0.0,0.0,87,0.00,,SHRA,0.00,VWS V14.01,2013-11-08 09:27:00,
2013-11-08 05:32:00,73.4,69.0,18.01,North,0,0.0,0.0,86,0.00,,SHRA,0.00,VWS V14.01,2013-11-08 09:32:00,
2013-11-08 05:37:00,73.4,69.0,18.01,North,0,0.0,0.0,86,0.00,,SHRA,0.00,VWS V14.01,2013-11-08 09:37:00,
2013-11-08 05:42:00,73.4,69.0,18.01,North,0,0.0,0.0,86,0.00,,SHRA,0.00,VWS V14.01,2013-11-08 09:42:00,
2013-11-08 05:47:00,73.2,69.1,18.01,North,0,0.0,0.0,87,0.00,,SHRA,0.00,VWS V14.01,2013-11-08 09:47:00,
2013-11-08 05:52:00,73.0,68.9,18.01,North,0,0.0,0.0,87,0.00,,SHRA,0.00,VWS V14.01,2013-11-08 09:52:00,
2013-11-08 05:57:00,73.0,68.9,18.01,North,0,0.0,0.0,87,0.00,,SHRA,0.00,VWS V14.01,2013-11-08 09:57:00,
2013-11-08 06:02:00,73.2,69.1,18.01,North,0,0.0,0.0,87,0.00,,SHRA,0.00,VWS V14.01,2013-11-08 10:02:00,
2013-11-08 06:07:00,73.0,68.9,18.01,North,0,0.0,0.0,87,0.00,,SHRA,0.00,VWS V14.01,2013-11-08 10:07:00,
2013-11-08 06:12:00,72.9,68.8,18.01,North,0,0.0,0.0,87,0.00,,SHRA,0.00,VWS V14.01,2013-11-08 10:12:00,
2013-11-08 06:17:00,72.9,68.8,18.01,North,0,0.0,0.0,87,0.00,,SHRA,0.00,VWS V14.01,2013-11-08 10:17:00,
2013-11-08 06:22:00,72.9,68.8,18.01,North,0,0.0,0.0,87,0.00,,SHRA,0.00,VWS V14.01,2013-11-08 10:22:00,
2013-11-08 06:27:00,72.9,68.8,18.01,North,0,0.0,0.0,87,0.00,,SHRA,0.00,VWS V14.01,2013-11-08 10:27:00,
2013-11-08 06:32:00,72.9,68.8,18.01,North,0,0.0,0.0,87,0.00,,SHRA,0.00,VWS V14.01,2013-11-08 10:32:00,
2013-11-08 06:37:00,73.0,68.9,18.01,North,0,0.0,0.0,87,0.00,,SHRA,0.00,VWS V14.01,2013-11-08 10:37:00,
2013-11-08 06:42:00,73.0,68.9,18.01,North,0,0.0,0.0,87,0.00,,SHRA,0.00,VWS V14.01,2013-11-08 10:42:00,
2013-11-08 06:47:00,73.2,69.1,18.01,North,0,0.0,0.0,87,0.00,,SHRA,0.00,VWS V14.01,2013-11-08 10:47:00,
2013-11-08 06:52:00,73.2,69.5,18.01,North,0,0.0,0.0,88,0.00,,SHRA,0.00,VWS V14.01,2013-11-08 10:52:00,
2013-11-08 06:57:00,73.4,69.3,18.01,North,0,0.0,0.0,87,0.00,,SHRA,0.00,VWS V14.01,2013-11-08 10:57:00,
2013-11-08 07:02:00,73.6,69.5,18.01,North,0,0.0,0.0,87,0.00,,SHRA,0.00,VWS V14.01,2013-11-08 11:02:00,
2013-11-08 07:07:00,73.8,70.0,18.01,North,0,0.0,0.0,88,0.00,,SHRA,0.00,VWS V14.01,2013-11-08 11:07:00,
2013-11-08 07:12:00,74.1,70.3,18.01,North,0,0.0,0.0,88,0.00,,SHRA,0.00,VWS V14.01,2013-11-08 11:12:00,
2013-11-08 07:17:00,74.3,70.5,18.01,North,0,0.0,0.0,88,0.00,,SHRA,0.00,VWS V14.01,2013-11-08 11:17:00,
2013-11-08 07:22:00,74.7,70.9,18.01,North,0,0.0,0.0,88,0.00,,SHRA,0.00,VWS V14.01,2013-11-08 11:22:00,
2013-11-08 07:27:00,74.8,71.1,18.01,North,0,0.0,0.0,88,0.00,,SHRA,0.00,VWS V14.01,2013-11-08 11:27:00,
2013-11-08 07:32:00,75.2,71.4,18.01,North,0,0.0,0.0,88,0.00,,SHRA,0.00,VWS V14.01,2013-11-08 11:32:00,
2013-11-08 07:37:00,75.6,71.8,18.01,North,0,0.0,0.0,88,0.00,,SHRA,0.00,VWS V14.01,2013-11-08 11:37:00,
2013-11-08 07:42:00,75.7,71.9,18.01,North,0,0.0,0.0,88,0.00,,SHRA,0.00,VWS V14.01,2013-11-08 11:42:00,
2013-11-08 07:47:00,76.1,72.3,18.01,North,0,0.0,0.0,88,0.00,,SHRA,0.00,VWS V14.01,2013-11-08 11:47:00,
2013-11-08 07:52:00,76.5,72.7,18.01,North,0,0.0,0.0,88,0.00,,SHRA,0.00,VWS V14.01,2013-11-08 11:52:00,
2013-11-08 07:57:00,76.6,72.5,18.01,North,0,0.0,0.0,87,0.00,,SHRA,0.00,VWS V14.01,2013-11-08 11:57:00,
2013-11-08 08:02:00,77.0,72.8,18.01,North,0,0.0,0.0,87,0.00,,SHRA,0.00,VWS V14.01,2013-11-08 12:02:00,
2013-11-08 08:07:00,77.4,72.8,18.01,North,0,0.0,0.0,86,0.00,,SHRA,0.00,VWS V14.01,2013-11-08 12:07:00,
2013-11-08 08:12:00,77.7,73.2,18.01,North,0,0.0,0.0,86,0.00,,SHRA,0.00,VWS V14.01,2013-11-08 12:12:00,
2013-11-08 08:17:00,77.9,73.4,18.01,North,0,0.0,0.0,86,0.00,,SHRA,0.00,VWS V14.01,2013-11-08 12:17:00,
2013-11-08 08:22:00,78.3,73.4,18.01,North,0,0.0,0.0,85,0.00,,SHRA,0.00,VWS V14.01,2013-11-08 12:22:00,
2013-11-08 08:27:00,78.8,73.9,18.01,North,0,0.0,0.0,85,0.00,,SHRA,0.00,VWS V14.01,2013-11-08 12:27:00,
2013-11-08 08:32:00,78.8,73.6,18.01,North,0,0.0,0.0,84,0.00,,SHRA,0.00,VWS V14.01,2013-11-08 12:32:00,
2013-11-08 08:37:00,79.3,73.7,18.01,North,0,0.0,0.0,83,0.00,,SHRA,0.00,VWS V14.01,2013-11-08 12:37:00,
2013-11-08 08:42:00,79.3,73.0,18.01,North,0,0.0,0.0,81,0.00,,SHRA,0.00,VWS V14.01,2013-11-08 12:42:00,
2013-11-08 08:47:00,79.9,73.2,18.01,North,0,0.0,0.0,80,0.00,,SHRA,0.00,VWS V14.01,2013-11-08 12:47:00,
2013-11-08 08:52:00,80.4,73.7,18.01,North,0,0.0,0.0,80,0.00,,SHRA,0.00,VWS V14.01,2013-11-08 12:52:00,
2013-11-08 08:57:00,80.8,73.7,18.01,North,0,0.0,0.0,79,0.00,,SHRA,0.00,VWS V14.01,2013-11-08 12:57:00,
2013-11-08 09:02:00,80.6,72.7,18.01,North,0,0.0,0.0,77,0.00,,SHRA,0.00,VWS V14.01,2013-11-08 13:02:00,
2013-11-08 09:07:00,81.1,72.5,18.01,North,0,0.0,0.0,75,0.00,,SHRA,0.00,VWS V14.01,2013-11-08 13:07:00,
2013-11-08 09:12:00,81.3,69.8,18.01,North,0,0.0,0.0,68,0.00,,SHRA,0.00,VWS V14.01,2013-11-08 13:12:00,
2013-11-08 09:17:00,81.9,69.8,18.01,North,0,0.0,0.0,67,0.00,,SHRA,0.00,VWS V14.01,2013-11-08 13:17:00,
2013-11-08 09:22:00,82.2,69.7,18.01,North,0,0.0,0.0,66,0.00,,SHRA,0.00,VWS V14.01,2013-11-08 13:22:00,
2013-11-08 09:27:00,82.8,67.9,18.01,North,0,0.0,0.0,61,0.00,,SHRA,0.00,VWS V14.01,2013-11-08 13:27:00,
2013-11-08 09:33:00,82.6,65.8,18.01,North,0,0.0,0.0,57,0.00,,SHRA,0.00,VWS V14.01,2013-11-08 13:33:00,
2013-11-08 09:38:00,83.1,63.1,18.01,North,0,0.0,0.0,51,0.00,,SHRA,0.00,VWS V14.01,2013-11-08 13:38:00,
2013-11-08 09:43:00,83.5,62.3,18.01,North,0,0.0,0.0,49,0.00,,SHRA,0.00,VWS V14.01,2013-11-08 13:43:00,
2013-11-08 09:48:00,83.7,60.7,18.01,North,0,0.0,0.0,46,0.00,,SHRA,0.00,VWS V14.01,2013-11-08 13:48:00,
2013-11-08 09:53:00,83.7,59.5,18.01,North,0,0.0,0.0,44,0.00,,SHRA,0.00,VWS V14.01,2013-11-08 13:53:00,
2013-11-08 09:58:00,84.2,58.0,18.01,North,0,0.0,0.0,41,0.00,,SHRA,0.00,VWS V14.01,2013-11-08 13:58:00,
2013-11-08 10:03:00,84.6,58.3,18.01,North,0,0.0,0.0,41,0.00,,SHRA,0.00,VWS V14.01,2013-11-08 14:03:00,
2013-11-08 10:08:00,84.9,58.6,18.01,North,0,0.0,0.0,41,0.00,,SHRA,0.00,VWS V14.01,2013-11-08 14:08:00,
2013-11-08 10:13:00,85.5,58.4,18.01,North,0,0.0,0.0,40,0.00,,SHRA,0.00,VWS V14.01,2013-11-08 14:13:00,
2013-11-08 10:18:00,85.8,57.3,18.01,North,0,0.0,0.0,38,0.00,,SHRA,0.00,VWS V14.01,2013-11-08 14:18:00,
2013-11-08 10:23:00,86.2,52.0,18.01,North,0,0.0,0.0,31,0.00,,SHRA,0.00,VWS V14.01,2013-11-08 14:23:00,
2013-11-08 10:28:00,86.5,50.5,18.01,North,0,0.0,0.0,29,0.00,,SHRA,0.00,VWS V14.01,2013-11-08 14:28:00,
2013-11-08 10:33:00,86.0,51.0,18.01,North,0,0.0,0.0,30,0.00,,SHRA,0.00,VWS V14.01,2013-11-08 14:33:00,
2013-11-08 10:38:00,86.2,51.1,18.01,North,0,0.0,0.0,30,0.00,,SHRA,0.00,VWS V14.01,2013-11-08 14:38:00,
2013-11-08 10:43:00,85.8,50.8,18.01,North,0,0.0,0.0,30,0.00,,SHRA,0.00,VWS V14.01,2013-11-08 14:43:00,
2013-11-08 10:48:00,86.4,51.3,18.01,North,0,0.0,0.0,30,0.00,,SHRA,0.00,VWS V14.01,2013-11-08 14:48:00,
2013-11-08 10:53:00,86.5,50.5,18.01,North,0,0.0,0.0,29,0.00,,SHRA,0.00,VWS V14.01,2013-11-08 14:53:00,
2013-11-08 10:58:00,87.1,51.9,18.01,North,0,0.0,0.0,30,0.00,,SHRA,0.00,VWS V14.01,2013-11-08 14:58:00,
2013-11-08 11:03:00,87.3,50.2,18.01,North,0,0.0,0.0,28,0.00,,SHRA,0.00,VWS V14.01,2013-11-08 15:03:00,
2013-11-08 11:08:00,88.0,50.8,18.01,North,0,0.0,0.0,28,0.00,,SHRA,0.00,VWS V14.01,2013-11-08 15:08:00,
2013-11-08 11:13:00,88.2,49.0,18.01,North,0,0.0,0.0,26,0.00,,SHRA,0.00,VWS V14.01,2013-11-08 15:13:00,
2013-11-08 11:18:00,88.0,48.8,18.01,North,0,0.0,0.0,26,0.00,,SHRA,0.00,VWS V14.01,2013-11-08 15:18:00,
2013-11-08 11:23:00,87.4,50.4,18.01,North,0,0.0,0.0,28,0.00,,SHRA,0.00,VWS V14.01,2013-11-08 15:23:00,
2013-11-08 11:28:00,87.1,50.1,18.01,North,0,0.0,0.0,28,0.00,,SHRA,0.00,VWS V14.01,2013-11-08 15:28:00,
2013-11-08 11:33:00,87.1,48.1,18.01,North,0,0.0,0.0,26,0.00,,SHRA,0.00,VWS V14.01,2013-11-08 15:33:00,
2013-11-08 11:38:00,88.3,49.1,18.01,North,0,0.0,0.0,26,0.00,,SHRA,0.00,VWS V14.01,2013-11-08 15:38:00,
2013-11-08 11:43:00,88.7,43.8,18.01,North,0,0.0,0.0,21,0.00,,SHRA,0.00,VWS V14.01,2013-11-08 15:43:00,
2013-11-08 11:48:00,89.1,42.8,18.01,North,0,0.0,0.0,20,0.00,,SHRA,0.00,VWS V14.01,2013-11-08 15:48:00,
2013-11-08 11:53:00,89.2,44.2,18.01,North,0,0.0,0.0,21,0.00,,SHRA,0.00,VWS V14.01,2013-11-08 15:53:00,
2013-11-08 11:58:00,88.9,42.7,18.01,North,0,0.0,0.0,20,0.00,,SHRA,0.00,VWS V14.01,2013-11-08 15:58:00,
2013-11-08 12:03:00,88.2,47.9,18.01,North,0,0.0,0.0,25,0.00,,SHRA,0.00,VWS V14.01,2013-11-08 16:03:00,
2013-11-08 12:08:00,88.0,50.8,18.01,North,0,0.0,0.0,28,0.00,,SHRA,0.00,VWS V14.01,2013-11-08 16:08:00,
2013-11-08 12:13:00,87.1,52.8,18.01,North,0,0.0,0.0,31,0.00,,SHRA,0.00,VWS V14.01,2013-11-08 16:13:00,
2013-11-08 12:18:00,86.2,53.7,18.01,North,0,0.0,0.0,33,0.00,,SHRA,0.00,VWS V14.01,2013-11-08 16:18:00,
2013-11-08 12:23:00,85.1,55.9,18.01,North,0,0.0,0.0,37,0.00,,SHRA,0.00,VWS V14.01,2013-11-08 16:23:00,
2013-11-08 12:28:00,84.9,57.9,18.01,North,0,0.0,0.0,40,0.00,,SHRA,0.00,VWS V14.01,2013-11-08 16:28:00,
2013-11-08 12:33:00,84.7,57.8,18.01,North,0,0.0,0.0,40,0.00,,SHRA,0.00,VWS V14.01,2013-11-08 16:33:00,
2013-11-08 12:38:00,85.1,58.1,18.01,North,0,0.0,0.0,40,0.00,,SHRA,0.00,VWS V14.01,2013-11-08 16:38:00,
2013-11-08 12:43:00,86.5,57.9,18.01,North,0,0.0,0.0,38,0.00,,SHRA,0.00,VWS V14.01,2013-11-08 16:43:00,
2013-11-08 12:48:00,86.7,55.8,18.01,North,0,0.0,0.0,35,0.00,,SHRA,0.00,VWS V14.01,2013-11-08 16:48:00,
2013-11-08 12:53:00,86.7,55.0,18.01,North,0,0.0,0.0,34,0.00,,SHRA,0.00,VWS V14.01,2013-11-08 16:53:00,
2013-11-08 12:58:00,87.1,55.3,18.01,North,0,0.0,0.0,34,0.00,,SHRA,0.00,VWS V14.01,2013-11-08 16:58:00,
2013-11-08 13:03:00,87.6,54.2,18.01,North,0,0.0,0.0,32,0.00,,SHRA,0.00,VWS V14.01,2013-11-08 17:03:00,
2013-11-08 13:08:00,87.6,51.5,18.01,North,0,0.0,0.0,29,0.00,,SHRA,0.00,VWS V14.01,2013-11-08 17:08:00,
2013-11-08 13:13:00,86.9,50.8,18.01,North,0,0.0,0.0,29,0.00,,SHRA,0.00,VWS V14.01,2013-11-08 17:13:00,
2013-11-08 13:18:00,86.7,50.7,18.01,North,0,0.0,0.0,29,0.00,,SHRA,0.00,VWS V14.01,2013-11-08 17:18:00,
2013-11-08 13:23:00,86.5,51.5,18.01,North,0,0.0,0.0,30,0.00,,SHRA,0.00,VWS V14.01,2013-11-08 17:23:00,
2013-11-08 13:28:00,86.9,52.7,18.01,North,0,0.0,0.0,31,0.00,,SHRA,0.00,VWS V14.01,2013-11-08 17:28:00,
2013-11-08 13:33:00,88.0,53.6,18.01,North,0,0.0,0.0,31,0.00,,SHRA,0.00,VWS V14.01,2013-11-08 17:33:00,
2013-11-08 13:38:00,87.8,52.5,18.01,North,0,0.0,0.0,30,0.00,,SHRA,0.00,VWS V14.01,2013-11-08 17:38:00,
2013-11-08 13:43:00,87.3,53.8,18.01,North,0,0.0,0.0,32,0.00,,SHRA,0.00,VWS V14.01,2013-11-08 17:43:00,
2013-11-08 13:48:00,87.4,53.1,18.01,North,0,0.0,0.0,31,0.00,,SHRA,0.00,VWS V14.01,2013-11-08 17:48:00,
2013-11-08 13:53:00,87.3,54.7,18.01,North,0,0.0,0.0,33,0.00,,SHRA,0.00,VWS V14.01,2013-11-08 17:53:00,
2013-11-08 13:58:00,87.1,55.3,18.01,North,0,0.0,0.0,34,0.00,,SHRA,0.00,VWS V14.01,2013-11-08 17:58:00,
2013-11-08 14:03:00,86.7,55.0,18.01,North,0,0.0,0.0,34,0.00,,SHRA,0.00,VWS V14.01,2013-11-08 18:03:00,
2013-11-08 14:08:00,86.7,55.0,18.01,North,0,0.0,0.0,34,0.00,,SHRA,0.00,VWS V14.01,2013-11-08 18:08:00,
2013-11-08 14:13:00,86.5,54.0,18.01,North,0,0.0,0.0,33,0.00,,SHRA,0.00,VWS V14.01,2013-11-08 18:13:00,
2013-11-08 14:18:00,86.7,52.5,18.01,North,0,0.0,0.0,31,0.00,,SHRA,0.00,VWS V14.01,2013-11-08 18:18:00,
2013-11-08 14:23:00,87.3,53.8,18.01,North,0,0.0,0.0,32,0.00,,SHRA,0.00,VWS V14.01,2013-11-08 18:23:00,
2013-11-08 14:28:00,88.0,54.5,18.01,North,0,0.0,0.0,32,0.00,,SHRA,0.00,VWS V14.01,2013-11-08 18:28:00,
2013-11-08 14:33:00,88.3,52.1,18.01,North,0,0.0,0.0,29,0.00,,SHRA,0.00,VWS V14.01,2013-11-08 18:33:00,
2013-11-08 14:38:00,87.6,52.4,18.01,North,0,0.0,0.0,30,0.00,,SHRA,0.00,VWS V14.01,2013-11-08 18:38:00,
2013-11-08 14:43:00,88.0,51.8,18.01,North,0,0.0,0.0,29,0.00,,SHRA,0.00,VWS V14.01,2013-11-08 18:43:00,
2013-11-08 14:48:00,88.7,52.4,18.01,North,0,0.0,0.0,29,0.00,,SHRA,0.00,VWS V14.01,2013-11-08 18:48:00,
2013-11-08 14:53:00,88.0,52.7,18.01,North,0,0.0,0.0,30,0.00,,SHRA,0.00,VWS V14.01,2013-11-08 18:53:00,
2013-11-08 14:58:00,87.8,52.5,18.01,North,0,0.0,0.0,30,0.00,,SHRA,0.00,VWS V14.01,2013-11-08 18:58:00,
2013-11-08 15:03:00,87.3,52.1,18.01,North,0,0.0,0.0,30,0.00,,SHRA,0.00,VWS V14.01,2013-11-08 19:03:00,
2013-11-08 15:08:00,86.4,53.0,18.01,North,0,0.0,0.0,32,0.00,,SHRA,0.00,VWS V14.01,2013-11-08 19:08:00,
2013-11-08 15:13:00,86.0,53.6,18.01,North,0,0.0,0.0,33,0.00,,SHRA,0.00,VWS V14.01,2013-11-08 19:13:00,
2013-11-08 15:18:00,86.2,54.5,18.01,North,0,0.0,0.0,34,0.00,,SHRA,0.00,VWS V14.01,2013-11-08 19:18:00,
2013-11-08 15:23:00,86.2,53.7,18.01,North,0,0.0,0.0,33,0.00,,SHRA,0.00,VWS V14.01,2013-11-08 19:23:00,
2013-11-08 15:28:00,86.4,54.7,18.01,North,0,0.0,0.0,34,0.00,,SHRA,0.00,VWS V14.01,2013-11-08 19:28:00,
2013-11-08 15:33:00,86.9,54.4,18.01,North,0,0.0,0.0,33,0.00,,SHRA,0.00,VWS V14.01,2013-11-08 19:33:00,
2013-11-08 15:38:00,87.3,53.0,18.01,North,0,0.0,0.0,31,0.00,,SHRA,0.00,VWS V14.01,2013-11-08 19:38:00,
2013-11-08 15:43:00,87.6,52.4,18.01,North,0,0.0,0.0,30,0.00,,SHRA,0.00,VWS V14.01,2013-11-08 19:43:00,
2013-11-08 15:48:00,87.8,52.5,18.01,North,0,0.0,0.0,30,0.00,,SHRA,0.00,VWS V14.01,2013-11-08 19:48:00,
2013-11-08 15:53:00,88.0,52.7,18.01,North,0,0.0,0.0,30,0.00,,SHRA,0.00,VWS V14.01,2013-11-08 19:53:00,
2013-11-08 15:58:00,88.2,52.8,18.01,North,0,0.0,0.0,30,0.00,,SHRA,0.00,VWS V14.01,2013-11-08 19:58:00,
2013-11-08 16:04:00,87.8,51.6,18.01,North,0,0.0,0.0,29,0.00,,SHRA,0.00,VWS V14.01,2013-11-08 20:04:00,
2013-11-08 16:09:00,88.0,51.8,18.01,North,0,0.0,0.0,29,0.00,,SHRA,0.00,VWS V14.01,2013-11-08 20:09:00,
2013-11-08 16:14:00,87.4,52.2,18.01,North,0,0.0,0.0,30,0.00,,SHRA,0.00,VWS V14.01,2013-11-08 20:14:00,
2013-11-08 16:19:00,87.4,52.2,18.01,North,0,0.0,0.0,30,0.00,,SHRA,0.00,VWS V14.01,2013-11-08 20:19:00,
2013-11-08 16:24:00,87.3,53.0,18.01,North,0,0.0,0.0,31,0.00,,SHRA,0.00,VWS V14.01,2013-11-08 20:24:00,
2013-11-08 16:29:00,87.4,52.2,18.01,North,0,0.0,0.0,30,0.00,,SHRA,0.00,VWS V14.01,2013-11-08 20:29:00,
2013-11-08 16:34:00,87.6,52.4,18.01,North,0,0.0,0.0,30,0.00,,SHRA,0.00,VWS V14.01,2013-11-08 20:34:00,
2013-11-08 16:39:00,87.4,52.2,18.01,North,0,0.0,0.0,30,0.00,,SHRA,0.00,VWS V14.01,2013-11-08 20:39:00,
2013-11-08 16:44:00,87.1,52.8,18.01,North,0,0.0,0.0,31,0.00,,SHRA,0.00,VWS V14.01,2013-11-08 20:44:00,
2013-11-08 16:49:00,86.9,52.7,18.01,North,0,0.0,0.0,31,0.00,,SHRA,0.00,VWS V14.01,2013-11-08 20:49:00,
2013-11-08 16:54:00,87.1,51.9,18.01,North,0,0.0,0.0,30,0.00,,SHRA,0.00,VWS V14.01,2013-11-08 20:54:00,
2013-11-08 16:59:00,86.9,47.9,18.01,North,0,0.0,0.0,26,0.00,,SHRA,0.00,VWS V14.01,2013-11-08 20:59:00,
2013-11-08 17:04:00,86.9,46.9,18.01,North,0,0.0,0.0,25,0.00,,SHRA,0.00,VWS V14.01,2013-11-08 21:04:00,
2013-11-08 17:09:00,86.5,45.5,18.01,North,0,0.0,0.0,24,0.00,,SHRA,0.00,VWS V14.01,2013-11-08 21:09:00,
2013-11-08 17:14:00,86.0,45.0,18.01,North,0,0.0,0.0,24,0.00,,SHRA,0.00,VWS V14.01,2013-11-08 21:14:00,
2013-11-08 17:19:00,85.6,45.8,18.01,North,0,0.0,0.0,25,0.00,,SHRA,0.00,VWS V14.01,2013-11-08 21:19:00,
2013-11-08 17:24:00,85.5,47.7,18.01,North,0,0.0,0.0,27,0.00,,SHRA,0.00,VWS V14.01,2013-11-08 21:24:00,
2013-11-08 17:29:00,85.3,48.5,18.01,North,0,0.0,0.0,28,0.00,,SHRA,0.00,VWS V14.01,2013-11-08 21:29:00,
2013-11-08 17:34:00,85.1,48.4,18.01,North,0,0.0,0.0,28,0.00,,SHRA,0.00,VWS V14.01,2013-11-08 21:34:00,
2013-11-08 17:39:00,84.9,49.2,18.01,North,0,0.0,0.0,29,0.00,,SHRA,0.00,VWS V14.01,2013-11-08 21:39:00,
2013-11-08 17:44:00,84.6,48.8,18.01,North,0,0.0,0.0,29,0.00,,SHRA,0.00,VWS V14.01,2013-11-08 21:44:00,
2013-11-08 17:49:00,84.4,48.7,18.01,North,0,0.0,0.0,29,0.00,,SHRA,0.00,VWS V14.01,2013-11-08 21:49:00,
2013-11-08 17:54:00,84.6,48.8,18.01,North,0,0.0,0.0,29,0.00,,SHRA,0.00,VWS V14.01,2013-11-08 21:54:00,
2013-11-08 17:59:00,84.6,49.8,18.01,North,0,0.0,0.0,30,0.00,,SHRA,0.00,VWS V14.01,2013-11-08 21:59:00,
2013-11-08 18:04:00,84.7,49.9,18.01,North,0,0.0,0.0,30,0.00,,SHRA,0.00,VWS V14.01,2013-11-08 22:04:00,
2013-11-08 18:09:00,84.7,49.9,18.01,North,0,0.0,0.0,30,0.00,,SHRA,0.00,VWS V14.01,2013-11-08 22:09:00,
2013-11-08 18:14:00,84.6,49.8,18.01,North,0,0.0,0.0,30,0.00,,SHRA,0.00,VWS V14.01,2013-11-08 22:14:00,
2013-11-08 18:19:00,84.6,49.8,18.01,North,0,0.0,0.0,30,0.00,,SHRA,0.00,VWS V14.01,2013-11-08 22:19:00,
2013-11-08 18:24:00,84.0,51.0,18.01,North,0,0.0,0.0,32,0.00,,SHRA,0.00,VWS V14.01,2013-11-08 22:24:00,
2013-11-08 18:29:00,83.8,50.9,18.01,North,0,0.0,0.0,32,0.00,,SHRA,0.00,VWS V14.01,2013-11-08 22:29:00,
2013-11-08 18:34:00,84.0,51.0,18.01,North,0,0.0,0.0,32,0.00,,SHRA,0.00,VWS V14.01,2013-11-08 22:34:00,
2013-11-08 18:39:00,84.0,51.0,18.01,North,0,0.0,0.0,32,0.00,,SHRA,0.00,VWS V14.01,2013-11-08 22:39:00,
2013-11-08 18:44:00,83.7,51.5,18.01,North,0,0.0,0.0,33,0.00,,SHRA,0.00,VWS V14.01,2013-11-08 22:44:00,
2013-11-08 18:49:00,83.5,51.4,18.01,North,0,0.0,0.0,33,0.00,,SHRA,0.00,VWS V14.01,2013-11-08 22:49:00,
2013-11-08 18:54:00,83.3,52.0,18.01,North,0,0.0,0.0,34,0.00,,SHRA,0.00,VWS V14.01,2013-11-08 22:54:00,
2013-11-08 18:59:00,83.1,52.7,18.01,North,0,0.0,0.0,35,0.00,,SHRA,0.00,VWS V14.01,2013-11-08 22:59:00,
2013-11-08 19:04:00,83.1,52.7,18.01,North,0,0.0,0.0,35,0.00,,SHRA,0.00,VWS V14.01,2013-11-08 23:04:00,
2013-11-08 19:09:00,83.1,52.7,18.01,North,0,0.0,0.0,35,0.00,,SHRA,0.00,VWS V14.01,2013-11-08 23:09:00,
2013-11-08 19:14:00,83.1,53.4,18.01,North,0,0.0,0.0,36,0.00,,SHRA,0.00,VWS V14.01,2013-11-08 23:14:00,
2013-11-08 19:19:00,83.1,54.2,18.01,North,0,0.0,0.0,37,0.00,,SHRA,0.00,VWS V14.01,2013-11-08 23:19:00,
2013-11-08 19:24:00,83.1,54.2,18.01,North,0,0.0,0.0,37,0.00,,SHRA,0.00,VWS V14.01,2013-11-08 23:24:00,
2013-11-08 19:29:00,82.9,54.0,18.01,North,0,0.0,0.0,37,0.00,,SHRA,0.00,VWS V14.01,2013-11-08 23:29:00,
2013-11-08 19:34:00,82.8,54.6,18.01,North,0,0.0,0.0,38,0.00,,SHRA,0.00,VWS V14.01,2013-11-08 23:34:00,
2013-11-08 19:39:00,82.6,55.1,18.01,North,0,0.0,0.0,39,0.00,,SHRA,0.00,VWS V14.01,2013-11-08 23:39:00,
2013-11-08 19:44:00,82.4,55.7,18.01,North,0,0.0,0.0,40,0.00,,SHRA,0.00,VWS V14.01,2013-11-08 23:44:00,
2013-11-08 19:49:00,82.2,56.2,18.01,North,0,0.0,0.0,41,0.00,,SHRA,0.00,VWS V14.01,2013-11-08 23:49:00,
2013-11-08 19:54:00,82.2,56.2,18.01,North,0,0.0,0.0,41,0.00,,SHRA,0.00,VWS V14.01,2013-11-08 23:54:00,
2013-11-08 19:59:00,82.2,56.9,18.01,North,0,0.0,0.0,42,0.00,,SHRA,0.00,VWS V14.01,2013-11-08 23:59:00,
2013-11-08 20:04:00,82.2,57.5,18.01,North,0,0.0,0.0,43,0.00,,SHRA,0.00,VWS V14.01,2013-11-09 00:04:00,
2013-11-08 20:09:00,82.0,57.4,18.01,North,0,0.0,0.0,43,0.00,,SHRA,0.00,VWS V14.01,2013-11-09 00:09:00,
2013-11-08 20:14:00,82.0,58.0,18.01,North,0,0.0,0.0,44,0.00,,SHRA,0.00,VWS V14.01,2013-11-09 00:14:00,
2013-11-08 20:19:00,81.7,58.3,18.01,North,0,0.0,0.0,45,0.00,,SHRA,0.00,VWS V14.01,2013-11-09 00:19:00,
2013-11-08 20:24:00,81.1,60.8,18.01,North,0,0.0,0.0,50,0.00,,SHRA,0.00,VWS V14.01,2013-11-09 00:24:00,
2013-11-08 20:29:00,81.0,61.7,18.01,North,0,0.0,0.0,52,0.00,,SHRA,0.00,VWS V14.01,2013-11-09 00:29:00,
2013-11-08 20:34:00,80.8,62.6,18.01,North,0,0.0,0.0,54,0.00,,SHRA,0.00,VWS V14.01,2013-11-09 00:34:00,
2013-11-08 20:39:00,80.8,62.6,18.01,North,0,0.0,0.0,54,0.00,,SHRA,0.00,VWS V14.01,2013-11-09 00:39:00,
2013-11-08 20:44:00,80.6,63.0,18.01,North,0,0.0,0.0,55,0.00,,SHRA,0.00,VWS V14.01,2013-11-09 00:44:00,
2013-11-08 20:49:00,80.4,63.8,18.01,North,0,0.0,0.0,57,0.00,,SHRA,0.00,VWS V14.01,2013-11-09 00:49:00,
2013-11-08 20:54:00,80.2,63.6,18.01,North,0,0.0,0.0,57,0.00,,SHRA,0.00,VWS V14.01,2013-11-09 00:54:00,
2013-11-08 20:59:00,80.2,64.1,18.01,North,0,0.0,0.0,58,0.00,,SHRA,0.00,VWS V14.01,2013-11-09 00:59:00,
2013-11-08 21:04:00,80.2,64.6,18.01,North,0,0.0,0.0,59,0.00,,SHRA,0.00,VWS V14.01,2013-11-09 01:04:00,
2013-11-08 21:09:00,80.1,64.9,18.01,North,0,0.0,0.0,60,0.00,,SHRA,0.00,VWS V14.01,2013-11-09 01:09:00,
2013-11-08 21:14:00,80.4,65.8,18.01,North,0,0.0,0.0,61,0.00,,SHRA,0.00,VWS V14.01,2013-11-09 01:14:00,
2013-11-08 21:19:00,80.1,64.9,18.01,North,0,0.0,0.0,60,0.00,,SHRA,0.00,VWS V14.01,2013-11-09 01:19:00,
2013-11-08 21:24:00,79.7,65.1,18.01,North,0,0.0,0.0,61,0.00,,SHRA,0.00,VWS V14.01,2013-11-09 01:24:00,
2013-11-08 21:29:00,79.5,65.4,18.01,North,0,0.0,0.0,62,0.00,,SHRA,0.00,VWS V14.01,2013-11-09 01:29:00,
2013-11-08 21:34:00,79.7,66.0,18.01,North,0,0.0,0.0,63,0.00,,SHRA,0.00,VWS V14.01,2013-11-09 01:34:00,
2013-11-08 21:39:00,79.7,66.0,18.01,North,0,0.0,0.0,63,0.00,,SHRA,0.00,VWS V14.01,2013-11-09 01:39:00,
2013-11-08 21:44:00,79.5,65.8,18.01,North,0,0.0,0.0,63,0.00,,SHRA,0.00,VWS V14.01,2013-11-09 01:44:00,
2013-11-08 21:49:00,79.3,65.7,18.01,North,0,0.0,0.0,63,0.00,,SHRA,0.00,VWS V14.01,2013-11-09 01:49:00,
2013-11-08 21:54:00,79.2,65.9,18.01,North,0,0.0,0.0,64,0.00,,SHRA,0.00,VWS V14.01,2013-11-09 01:54:00,
2013-11-08 21:59:00,79.0,65.8,18.01,North,0,0.0,0.0,64,0.00,,SHRA,0.00,VWS V14.01,2013-11-09 01:59:00,
2013-11-08 22:04:00,78.8,66.1,18.01,North,0,0.0,0.0,65,0.00,,SHRA,0.00,VWS V14.01,2013-11-09 02:04:00,
2013-11-08 22:09:00,78.8,66.1,18.01,North,0,0.0,0.0,65,0.00,,SHRA,0.00,VWS V14.01,2013-11-09 02:09:00,
2013-11-08 22:14:00,78.6,66.3,18.01,North,0,0.0,0.0,66,0.00,,SHRA,0.00,VWS V14.01,2013-11-09 02:14:00,
2013-11-08 22:19:00,78.6,66.8,18.01,North,0,0.0,0.0,67,0.00,,SHRA,0.00,VWS V14.01,2013-11-09 02:19:00,
2013-11-08 22:24:00,78.4,67.0,18.01,North,0,0.0,0.0,68,0.00,,SHRA,0.00,VWS V14.01,2013-11-09 02:24:00,
2013-11-08 22:29:00,78.4,67.0,18.01,North,0,0.0,0.0,68,0.00,,SHRA,0.00,VWS V14.01,2013-11-09 02:29:00,
2013-11-08 22:34:00,78.4,67.4,18.01,North,0,0.0,0.0,69,0.00,,SHRA,0.00,VWS V14.01,2013-11-09 02:34:00,
2013-11-08 22:39:00,78.3,67.3,18.01,North,0,0.0,0.0,69,0.00,,SHRA,0.00,VWS V14.01,2013-11-09 02:39:00,
2013-11-08 22:44:00,77.9,66.9,18.01,North,0,0.0,0.0,69,0.00,,SHRA,0.00,VWS V14.01,2013-11-09 02:44:00,
2013-11-08 22:49:00,77.9,67.3,18.01,North,0,0.0,0.0,70,0.00,,SHRA,0.00,VWS V14.01,2013-11-09 02:49:00,
2013-11-08 22:54:00,78.1,67.5,18.01,North,0,0.0,0.0,70,0.00,,SHRA,0.00,VWS V14.01,2013-11-09 02:54:00,
2013-11-08 22:59:00,78.1,67.5,18.01,North,0,0.0,0.0,70,0.00,,SHRA,0.00,VWS V14.01,2013-11-09 02:59:00,
2013-11-08 23:04:00,77.9,66.9,18.01,North,0,0.0,0.0,69,0.00,,SHRA,0.00,VWS V14.01,2013-11-09 03:04:00,
2013-11-08 23:09:00,78.1,67.5,18.01,North,0,0.0,0.0,70,0.00,,SHRA,0.00,VWS V14.01,2013-11-09 03:09:00,
2013-11-08 23:14:00,78.3,67.7,18.01,North,0,0.0,0.0,70,0.00,,SHRA,0.00,VWS V14.01,2013-11-09 03:14:00,
2013-11-08 23:19:00,78.1,67.5,18.01,North,0,0.0,0.0,70,0.00,,SHRA,0.00,VWS V14.01,2013-11-09 03:19:00,
2013-11-08 23:24:00,77.9,67.3,18.01,North,0,0.0,0.0,70,0.00,,SHRA,0.00,VWS V14.01,2013-11-09 03:24:00,
2013-11-08 23:29:00,77.7,66.8,18.01,North,0,0.0,0.0,69,0.00,,SHRA,0.00,VWS V14.01,2013-11-09 03:29:00,
2013-11-08 23:34:00,77.7,66.8,18.01,North,0,0.0,0.0,69,0.00,,SHRA,0.00,VWS V14.01,2013-11-09 03:34:00,
2013-11-08 23:39:00,77.5,67.0,18.01,North,0,0.0,0.0,70,0.00,,SHRA,0.00,VWS V14.01,2013-11-09 03:39:00,
2013-11-08 23:44:00,77.4,66.8,18.01,North,0,0.0,0.0,70,0.00,,SHRA,0.00,VWS V14.01,2013-11-09 03:44:00,
2013-11-08 23:49:00,77.4,66.8,18.01,North,0,0.0,0.0,70,0.00,,SHRA,0.00,VWS V14.01,2013-11-09 03:49:00,
2013-11-08 23:54:00,77.4,67.2,18.01,North,0,0.0,0.0,71,0.00,,SHRA,0.00,VWS V14.01,2013-11-09 03:54:00,
2013-11-08 23:59:00,77.4,67.2,18.01,North,0,0.0,0.0,71,0.00,,SHRA,0.00,VWS V14.01,2013-11-09 03:59:00,